createdAt,value
2022-07-26T00:00:32.504Z,20.733333
2022-07-26T00:05:35.220Z,20.533333
2022-07-26T00:10:16.829Z,19.933333
2022-07-26T00:15:19.166Z,20.133333
2022-07-26T00:20:21.561Z,19.400000
2022-07-26T00:25:23.807Z,20.071429
2022-07-26T00:30:26.173Z,21.200000
2022-07-26T00:35:28.373Z,22.000000
2022-07-26T00:40:30.292Z,20.533333
2022-07-26T00:45:32.627Z,19.466667
2022-07-26T00:50:35.463Z,19.733333
2022-07-26T00:55:17.236Z,20.066667
2022-07-26T01:00:19.194Z,20.333333
2022-07-26T01:05:21.573Z,20.133333
2022-07-26T01:10:24.023Z,20.285714
2022-07-26T01:15:25.979Z,19.733333
2022-07-26T01:20:28.507Z,19.800000
2022-07-26T01:25:31.638Z,19.400000
2022-07-26T01:30:34.470Z,20.133333
2022-07-26T01:35:16.295Z,20.400000
2022-07-26T01:40:19.207Z,22.133333
2022-07-26T01:45:21.493Z,21.466667
2022-07-26T01:50:23.737Z,21.928571
2022-07-26T01:55:26.274Z,21.266667
2022-07-26T02:00:28.479Z,22.066667
2022-07-26T02:05:30.942Z,22.333333
2022-07-26T02:10:33.292Z,23.400000
2022-07-26T02:15:35.447Z,24.000000
2022-07-26T02:20:17.477Z,24.800000
2022-07-26T02:25:19.694Z,26.600000
2022-07-26T02:30:21.784Z,26.666667
2022-07-26T02:35:23.868Z,26.714286
2022-07-26T02:40:26.191Z,26.266667
2022-07-26T02:45:28.528Z,26.066667
2022-07-26T02:50:30.698Z,26.266667
2022-07-26T02:55:32.829Z,26.800000
2022-07-26T03:00:35.048Z,27.333333
2022-07-26T03:05:17.037Z,28.000000
2022-07-26T03:10:19.813Z,29.333333
2022-07-26T03:15:22.577Z,31.000000
2022-07-26T03:20:24.904Z,31.933333
2022-07-26T03:25:27.216Z,31.933333
2022-07-26T03:30:29.529Z,31.333333
2022-07-26T03:35:36.756Z,32.333333
2022-07-26T03:40:34.157Z,30.800000
2022-07-26T03:45:16.630Z,38.866667
2022-07-26T03:50:19.265Z,40.733333
2022-07-26T03:55:21.701Z,38.800000
2022-07-26T04:00:24.358Z,37.857143
2022-07-26T04:05:26.834Z,36.600000
2022-07-26T04:10:29.516Z,35.933333
2022-07-26T04:15:33.243Z,36.600000
2022-07-26T04:20:34.465Z,36.400000
2022-07-26T04:25:16.967Z,36.666667
2022-07-26T04:30:19.676Z,37.200000
2022-07-26T04:35:22.134Z,37.857143
2022-07-26T04:40:24.600Z,36.733333
2022-07-26T04:45:27.484Z,36.200000
2022-07-26T04:50:30.624Z,37.000000
2022-07-26T04:55:33.585Z,34.533333
2022-07-26T05:00:21.676Z,31.866667
2022-07-26T05:05:18.725Z,33.200000
2022-07-26T05:10:21.396Z,35.200000
2022-07-26T05:15:24.125Z,35.642857
2022-07-26T05:20:26.897Z,36.733333
2022-07-26T05:25:29.539Z,38.533333
2022-07-26T05:30:32.883Z,39.733333
2022-07-26T05:35:35.693Z,40.000000
2022-07-26T05:40:18.184Z,41.333333
2022-07-26T05:45:21.623Z,42.066667
2022-07-26T05:50:24.639Z,42.571429
2022-07-26T05:55:27.134Z,43.066667
2022-07-26T06:00:29.785Z,43.800000
2022-07-26T06:05:33.161Z,43.666667
2022-07-26T06:10:35.962Z,43.466667
2022-07-26T06:15:18.671Z,43.266667
2022-07-26T06:20:21.377Z,42.733333
2022-07-26T06:25:24.359Z,45.857143
2022-07-26T06:30:26.835Z,48.000000
2022-07-26T06:35:29.643Z,48.466667
2022-07-26T06:40:32.192Z,48.666667
2022-07-26T06:45:34.550Z,49.800000
2022-07-26T06:50:16.891Z,51.466667
2022-07-26T06:55:19.571Z,49.600000
2022-07-26T07:00:21.719Z,46.066667
2022-07-26T07:05:24.193Z,46.142857
2022-07-26T07:10:26.834Z,46.333333
2022-07-26T07:15:29.413Z,45.066667
2022-07-26T07:20:31.803Z,44.733333
2022-07-26T07:25:34.914Z,44.066667
2022-07-26T07:30:16.984Z,44.800000
2022-07-26T07:35:19.778Z,42.866667
2022-07-26T07:40:22.385Z,43.142857
2022-07-26T07:45:25.302Z,43.200000
2022-07-26T07:50:28.399Z,44.266667
2022-07-26T07:55:41.611Z,42.866667
2022-07-26T08:00:33.548Z,44.133333
2022-07-26T08:05:15.964Z,46.800000
2022-07-26T08:10:18.572Z,46.733333
2022-07-26T08:15:21.425Z,43.800000
2022-07-26T08:20:25.062Z,43.214286
2022-07-26T08:25:26.119Z,43.000000
2022-07-26T08:30:28.734Z,45.266667
2022-07-26T08:35:31.411Z,45.666667
2022-07-26T08:40:33.844Z,45.200000
2022-07-26T08:45:16.087Z,47.600000
2022-07-26T08:50:19.061Z,50.266667
2022-07-26T08:55:21.807Z,50.866667
2022-07-26T09:00:25.433Z,53.214286
2022-07-26T09:05:28.128Z,53.666667
2022-07-26T09:10:32.301Z,54.733333
2022-07-26T09:15:33.603Z,54.066667
2022-07-26T09:20:35.933Z,53.466667
2022-07-26T09:25:18.243Z,52.133333
2022-07-26T09:30:20.767Z,50.266667
2022-07-26T09:35:50.063Z,48.357143
2022-07-26T09:40:25.842Z,48.133333
2022-07-26T09:45:28.529Z,48.933333
2022-07-26T09:50:31.114Z,50.000000
2022-07-26T09:55:42.410Z,49.733333
2022-07-26T10:00:16.294Z,50.600000
2022-07-26T10:05:18.779Z,52.800000
2022-07-26T10:10:21.512Z,53.400000
2022-07-26T10:15:24.106Z,52.928571
2022-07-26T10:20:27.062Z,53.666667
2022-07-26T10:25:29.393Z,55.066667
2022-07-26T10:30:35.148Z,55.266667
2022-07-26T10:35:35.536Z,55.666667
2022-07-26T10:40:17.951Z,57.000000
2022-07-26T10:45:20.547Z,56.400000
2022-07-26T10:50:23.125Z,55.571429
2022-07-26T10:55:25.173Z,55.400000
2022-07-26T11:00:27.855Z,55.800000
2022-07-26T11:05:30.255Z,56.200000
2022-07-26T11:10:33.153Z,55.333333
2022-07-26T11:15:35.809Z,53.333333
2022-07-26T11:20:18.010Z,52.666667
2022-07-26T11:25:20.822Z,51.466667
2022-07-26T11:30:23.326Z,53.142857
2022-07-26T11:35:30.091Z,61.933333
2022-07-26T11:40:28.654Z,61.600000
2022-07-26T11:45:30.977Z,59.066667
2022-07-26T11:50:34.267Z,55.800000
2022-07-26T11:55:16.753Z,54.066667
2022-07-26T12:00:19.391Z,52.533333
2022-07-26T12:05:22.339Z,53.000000
2022-07-26T12:10:25.370Z,52.571429
2022-07-26T12:15:28.118Z,49.600000
2022-07-26T12:20:30.869Z,49.000000
2022-07-26T12:25:33.790Z,48.866667
2022-07-26T12:30:16.577Z,51.066667
2022-07-26T12:35:19.724Z,51.866667
2022-07-26T12:40:22.346Z,51.357143
2022-07-26T12:45:24.989Z,50.933333
2022-07-26T12:50:27.825Z,51.200000
2022-07-26T12:55:29.995Z,50.533333
2022-07-26T13:00:32.512Z,48.266667
2022-07-26T13:05:34.737Z,55.733333
2022-07-26T13:10:35.004Z,56.466667
2022-07-26T13:15:20.714Z,52.133333
2022-07-26T13:20:23.386Z,50.214286
2022-07-26T13:25:29.026Z,55.600000
2022-07-26T13:30:28.961Z,56.733333
2022-07-26T13:35:31.217Z,56.000000
2022-07-26T13:40:34.000Z,56.200000
2022-07-26T13:45:16.348Z,56.333333
2022-07-26T13:50:19.285Z,54.733333
2022-07-26T13:55:21.791Z,53.600000
2022-07-26T14:00:24.535Z,53.071429
2022-07-26T14:05:26.944Z,52.133333
2022-07-26T14:10:29.552Z,56.200000
2022-07-26T14:15:31.679Z,55.066667
2022-07-26T14:20:34.478Z,56.000000
2022-07-26T14:25:16.579Z,54.866667
2022-07-26T14:30:19.029Z,53.400000
2022-07-26T14:35:22.091Z,53.000000
2022-07-26T14:40:24.490Z,51.500000
2022-07-26T14:45:27.334Z,53.000000
2022-07-26T14:50:42.448Z,49.666667
2022-07-26T14:55:32.411Z,46.933333
2022-07-26T15:00:35.198Z,52.933333
2022-07-26T15:05:17.610Z,52.400000
2022-07-26T15:10:20.298Z,51.666667
2022-07-26T15:15:22.721Z,49.285714
2022-07-26T15:20:25.327Z,45.733333
2022-07-26T15:25:27.966Z,45.333333
2022-07-26T15:30:30.658Z,44.466667
2022-07-26T15:35:33.121Z,43.666667
2022-07-26T15:40:35.718Z,42.666667
2022-07-26T15:45:17.940Z,43.200000
2022-07-26T15:50:20.361Z,42.733333
2022-07-26T15:55:23.348Z,41.714286
2022-07-26T16:00:25.680Z,40.266667
2022-07-26T16:05:28.192Z,41.133333
2022-07-26T16:10:31.091Z,40.933333
2022-07-26T16:15:33.628Z,40.266667
2022-07-26T16:20:16.099Z,39.600000
2022-07-26T16:25:18.684Z,39.733333
2022-07-26T16:30:21.305Z,41.000000
2022-07-26T16:35:23.937Z,40.071429
2022-07-26T16:40:26.679Z,38.466667
2022-07-26T16:45:29.116Z,36.800000
2022-07-26T16:50:31.820Z,37.200000
2022-07-26T16:55:34.522Z,32.533333
2022-07-26T17:00:16.718Z,32.333333
2022-07-26T17:05:19.946Z,31.733333
2022-07-26T17:10:22.431Z,31.714286
2022-07-26T17:15:25.047Z,32.666667
2022-07-26T17:20:28.326Z,32.466667
2022-07-26T17:25:30.805Z,31.933333
2022-07-26T17:30:33.349Z,34.200000
2022-07-26T17:35:35.400Z,34.666667
2022-07-26T17:40:17.481Z,33.000000
2022-07-26T17:45:20.629Z,30.933333
2022-07-26T17:50:36.526Z,30.285714
2022-07-26T17:55:25.815Z,29.400000
2022-07-26T18:00:28.958Z,28.533333
2022-07-26T18:05:35.128Z,26.200000
2022-07-26T18:10:34.046Z,26.466667
2022-07-26T18:15:35.907Z,27.000000
2022-07-26T18:20:18.246Z,27.266667
2022-07-26T18:25:20.769Z,27.933333
2022-07-26T18:30:23.806Z,27.857143
2022-07-26T18:35:26.744Z,28.000000
2022-07-26T18:40:29.465Z,27.133333
2022-07-26T18:45:32.351Z,28.000000
2022-07-26T18:50:35.426Z,28.733333
2022-07-26T18:55:18.217Z,28.000000
2022-07-26T19:00:21.003Z,27.266667
2022-07-26T19:05:24.015Z,27.857143
2022-07-26T19:10:26.559Z,28.800000
2022-07-26T19:15:29.125Z,29.933333
2022-07-26T19:20:31.708Z,28.400000
2022-07-26T19:25:34.398Z,28.733333
2022-07-26T19:30:16.657Z,29.733333
2022-07-26T19:35:19.508Z,29.866667
2022-07-26T19:40:22.243Z,29.533333
2022-07-26T19:45:24.690Z,29.714286
2022-07-26T19:50:27.235Z,28.866667
2022-07-26T19:55:30.070Z,28.466667
2022-07-26T20:00:32.614Z,29.466667
2022-07-26T20:05:35.435Z,28.733333
2022-07-26T20:10:17.746Z,27.800000
2022-07-26T20:15:20.353Z,27.666667
2022-07-26T20:20:22.883Z,27.500000
2022-07-26T20:25:25.867Z,27.133333
2022-07-26T20:30:28.806Z,25.733333
2022-07-26T20:35:31.681Z,26.666667
2022-07-26T20:40:34.351Z,25.533333
2022-07-26T20:45:16.595Z,25.066667
2022-07-26T20:50:19.573Z,24.533333
2022-07-26T20:55:22.728Z,24.142857
2022-07-26T21:00:25.537Z,24.866667
2022-07-26T21:05:32.385Z,23.800000
2022-07-26T21:10:31.126Z,21.800000
2022-07-26T21:15:34.040Z,21.133333
2022-07-26T21:20:16.390Z,20.600000
2022-07-26T21:25:18.945Z,19.800000
2022-07-26T21:30:21.747Z,19.933333
2022-07-26T21:35:24.256Z,21.071429
2022-07-26T21:40:26.822Z,19.933333
2022-07-26T21:45:29.269Z,19.200000
2022-07-26T21:50:31.845Z,18.133333
2022-07-26T21:55:34.849Z,17.733333
2022-07-26T22:00:17.037Z,17.533333
2022-07-26T22:05:19.882Z,17.733333
2022-07-26T22:10:22.366Z,16.571429
2022-07-26T22:15:25.416Z,17.333333
2022-07-26T22:20:28.019Z,19.133333
2022-07-26T22:25:31.083Z,16.666667
2022-07-26T22:30:34.598Z,19.866667
2022-07-26T22:35:17.381Z,19.800000
2022-07-26T22:40:20.586Z,17.733333
2022-07-26T22:45:22.981Z,15.785714
2022-07-26T22:50:25.467Z,15.133333
2022-07-26T22:55:27.986Z,14.600000
2022-07-26T23:00:30.793Z,15.000000
2022-07-26T23:05:45.794Z,16.333333
2022-07-26T23:10:36.156Z,16.266667
2022-07-26T23:15:18.648Z,16.333333
2022-07-26T23:20:22.017Z,16.533333
2022-07-26T23:25:24.531Z,16.928571
2022-07-26T23:30:27.386Z,16.533333
2022-07-26T23:35:30.514Z,16.400000
2022-07-26T23:40:33.097Z,16.133333
2022-07-26T23:45:35.639Z,16.333333
2022-07-26T23:50:18.367Z,17.466667
2022-07-26T23:55:21.319Z,17.266667
